Time;durP1;ratioP1;P1;durP2;ratioP2;P2;SDS_P1;SDS_P2;PMS_P1;PMS_P2;Temp;Humidity;BMP_temperature;BMP_pressure;BME280_temperature;BME280_humidity;BME280_pressure;Samples;Min_cycle;Max_cycle;Signal;HPM_P1;HPM_P2
2023/03/30 00:01:55;;;;;;;1.07;0.30;;;6.50;64.20;;;;;;4977988;28;20217;-78
2023/03/30 00:04:25;;;;;;;0.20;0.20;;;6.50;63.60;;;;;;4979228;28;20186;-79
2023/03/30 00:06:52;;;;;;;0.20;0.20;;;6.50;64.10;;;;;;4978700;28;20177;-79
2023/03/30 00:09:17;;;;;;;0.30;0.30;;;6.50;64.00;;;;;;4978733;28;20221;-79
2023/03/30 00:11:44;;;;;;;1.90;0.37;;;6.40;64.10;;;;;;4978842;28;20177;-79
2023/03/30 00:14:11;;;;;;;0.43;0.40;;;6.60;63.20;;;;;;4981919;28;20190;-79
2023/03/30 00:16:36;;;;;;;0.83;0.40;;;6.60;63.10;;;;;;4985841;28;20188;-79
2023/03/30 00:19:02;;;;;;;1.60;0.40;;;6.60;63.10;;;;;;4986056;28;20620;-79
2023/03/30 00:21:28;;;;;;;0.23;0.23;;;6.60;63.20;;;;;;4989287;28;20173;-79
2023/03/30 00:23:53;;;;;;;0.30;0.30;;;6.50;63.50;;;;;;4986865;28;20189;-78
2023/03/30 00:26:20;;;;;;;0.40;0.40;;;6.40;63.80;;;;;;4985000;28;20188;-79
2023/03/30 00:28:46;;;;;;;0.30;0.30;;;6.40;63.70;;;;;;4984713;28;20196;-78
2023/03/30 00:31:11;;;;;;;0.30;0.30;;;6.40;63.90;;;;;;4988926;28;20588;-79
2023/03/30 00:33:37;;;;;;;0.20;0.20;;;6.50;63.70;;;;;;4984904;28;20188;-79
2023/03/30 00:36:03;;;;;;;2.30;0.40;;;6.40;64.30;;;;;;4986743;28;20282;-77
2023/03/30 00:38:28;;;;;;;0.40;0.40;;;6.40;64.20;;;;;;4988362;28;20241;-77
2023/03/30 00:40:57;;;;;;;0.30;0.30;;;6.30;64.90;;;;;;4986333;28;20676;-79
2023/03/30 00:43:24;;;;;;;0.20;0.20;;;6.30;64.90;;;;;;4984798;28;20288;-77
2023/03/30 00:45:50;;;;;;;2.57;0.30;;;6.30;65.50;;;;;;4982587;28;20213;-77
2023/03/30 00:48:47;;;;;;;1.90;0.40;;;6.30;65.70;;;;;;4987547;28;20201;-78
2023/03/30 00:51:14;;;;;;;1.53;0.37;;;6.20;66.10;;;;;;4916613;29;20199;-79
2023/03/30 00:53:41;;;;;;;1.50;0.20;;;6.20;66.90;;;;;;4933582;29;20188;-79
2023/03/30 00:56:11;;;;;;;0.30;0.30;;;6.10;66.60;;;;;;4933740;29;20192;-79
2023/03/30 00:58:39;;;;;;;0.43;0.43;;;6.10;67.20;;;;;;4916181;29;20208;-79
2023/03/30 01:01:09;;;;;;;0.40;0.40;;;6.10;67.60;;;;;;4933429;29;20203;-79
2023/03/30 01:03:44;;;;;;;0.50;0.50;;;6.10;67.60;;;;;;4932908;29;20696;-79
2023/03/30 01:06:11;;;;;;;0.30;0.30;;;6.10;67.10;;;;;;4932150;29;20195;-79
2023/03/30 01:08:39;;;;;;;0.30;0.30;;;6.10;67.40;;;;;;4931525;29;20206;-77
2023/03/30 01:11:06;;;;;;;0.30;0.30;;;6.10;67.40;;;;;;4932364;29;20211;-78
2023/03/30 01:13:36;;;;;;;0.50;0.50;;;6.10;67.80;;;;;;4930212;29;20339;-78
2023/03/30 01:16:17;;;;;;;0.30;0.30;;;6.10;67.90;;;;;;4916865;29;20677;-77
2023/03/30 01:19:06;;;;;;;0.30;0.30;;;6.10;68.30;;;;;;4917732;29;20621;-77
2023/03/30 01:21:50;;;;;;;0.33;0.33;;;6.10;67.90;;;;;;4915800;29;20206;-79
2023/03/30 01:24:53;;;;;;;0.20;0.20;;;6.10;68.60;;;;;;4932421;29;20279;-79
2023/03/30 01:27:51;;;;;;;0.30;0.30;;;6.00;68.70;;;;;;4946042;28;20198;-77
2023/03/30 01:30:28;;;;;;;0.20;0.20;;;5.90;69.00;;;;;;4983742;28;20190;-79
2023/03/30 01:33:00;;;;;;;0.60;0.23;;;5.90;69.20;;;;;;4985940;28;20247;-77
2023/03/30 01:35:30;;;;;;;0.33;0.33;;;5.90;69.10;;;;;;4978786;28;20236;-77
2023/03/30 01:38:23;;;;;;;0.30;0.30;;;5.90;69.00;;;;;;4982711;28;20217;-77
2023/03/30 01:41:08;;;;;;;0.20;0.20;;;5.80;69.50;;;;;;4978319;28;20218;-77
2023/03/30 01:44:07;;;;;;;0.40;0.40;;;5.80;69.40;;;;;;4983703;28;20177;-76
2023/03/30 01:46:39;;;;;;;0.30;0.30;;;5.80;68.80;;;;;;4981185;28;20625;-77
2023/03/30 01:49:29;;;;;;;1.33;0.40;;;5.80;69.30;;;;;;4983495;28;20181;-77
2023/03/30 01:52:10;;;;;;;1.13;0.30;;;5.80;69.50;;;;;;4981044;28;20182;-77
2023/03/30 01:54:41;;;;;;;0.30;0.30;;;5.70;70.40;;;;;;4978575;28;20185;-77
2023/03/30 01:57:41;;;;;;;0.23;0.23;;;5.60;70.80;;;;;;4982172;28;20264;-78
2023/03/30 02:00:14;;;;;;;0.50;0.50;;;5.50;70.80;;;;;;4982952;28;20190;-77
2023/03/30 02:03:04;;;;;;;0.50;0.30;;;5.50;70.50;;;;;;4979659;28;20182;-77
2023/03/30 02:05:32;;;;;;;0.37;0.37;;;5.50;69.90;;;;;;4982795;28;20248;-77
2023/03/30 02:08:05;;;;;;;0.20;0.20;;;5.70;70.10;;;;;;4980243;28;20196;-79
2023/03/30 02:10:33;;;;;;;0.30;0.30;;;5.70;70.20;;;;;;4977165;28;20895;-78
2023/03/30 02:13:00;;;;;;;0.40;0.40;;;5.80;70.40;;;;;;4979328;28;20279;-78
2023/03/30 02:15:38;;;;;;;0.53;0.40;;;5.80;70.50;;;;;;4984242;28;20186;-77
2023/03/30 02:18:04;;;;;;;0.20;0.20;;;5.80;70.80;;;;;;4981938;28;20601;-77
2023/03/30 02:20:31;;;;;;;0.30;0.30;;;5.80;70.30;;;;;;4981419;28;20573;-78
2023/03/30 02:22:58;;;;;;;0.93;0.30;;;5.80;70.50;;;;;;4981183;28;20273;-78
2023/03/30 02:25:24;;;;;;;0.30;0.30;;;5.80;70.50;;;;;;4978293;28;20193;-77
2023/03/30 02:27:50;;;;;;;0.30;0.30;;;5.80;71.20;;;;;;4978434;28;20193;-78
2023/03/30 02:30:16;;;;;;;0.20;0.20;;;5.60;71.70;;;;;;4981160;28;20178;-78
2023/03/30 02:32:44;;;;;;;0.33;0.33;;;5.60;71.80;;;;;;4983989;28;20267;-78
2023/03/30 02:35:25;;;;;;;0.30;0.30;;;5.50;72.20;;;;;;4979773;28;20680;-78
2023/03/30 02:38:03;;;;;;;0.30;0.30;;;5.50;72.40;;;;;;4979668;28;20272;-78
2023/03/30 02:40:40;;;;;;;0.33;0.33;;;5.50;72.30;;;;;;4979518;28;20185;-78
2023/03/30 02:43:25;;;;;;;0.43;0.43;;;5.50;71.90;;;;;;4979518;28;20178;-79
2023/03/30 02:46:18;;;;;;;0.30;0.30;;;5.60;72.20;;;;;;4979833;28;20226;-78
2023/03/30 02:49:11;;;;;;;0.30;0.30;;;5.70;72.40;;;;;;4986183;28;20186;-79
2023/03/30 02:51:43;;;;;;;0.20;0.20;;;5.70;72.70;;;;;;4979712;28;20582;-79
2023/03/30 02:54:25;;;;;;;0.47;0.47;;;5.70;73.20;;;;;;4981144;28;20248;-77
2023/03/30 02:57:28;;;;;;;0.40;0.40;;;5.70;73.30;;;;;;4984996;28;20675;-77
2023/03/30 03:00:00;;;;;;;1.57;0.40;;;5.70;73.70;;;;;;4980214;28;20198;-77
2023/03/30 03:02:40;;;;;;;0.27;0.27;;;5.70;74.60;;;;;;4980039;28;20177;-78
2023/03/30 03:05:11;;;;;;;0.40;0.40;;;5.70;73.80;;;;;;4986178;28;20675;-77
2023/03/30 03:07:38;;;;;;;0.33;0.33;;;5.70;75.10;;;;;;4980489;28;20185;-79
2023/03/30 03:10:05;;;;;;;0.93;0.40;;;5.70;74.60;;;;;;4980598;28;20178;-77
2023/03/30 03:12:31;;;;;;;0.27;0.20;;;5.70;75.10;;;;;;4978598;28;20186;-77
2023/03/30 03:14:57;;;;;;;0.30;0.30;;;5.70;74.90;;;;;;4983193;28;20190;-78
2023/03/30 03:17:23;;;;;;;0.40;0.40;;;5.70;75.30;;;;;;4982521;28;20214;-78
2023/03/30 03:19:49;;;;;;;0.23;0.23;;;5.70;75.40;;;;;;4980635;28;20190;-78
2023/03/30 03:22:15;;;;;;;1.13;0.40;;;5.70;75.80;;;;;;4977212;28;20178;-78
2023/03/30 03:24:41;;;;;;;2.93;0.57;;;5.60;75.60;;;;;;4981710;28;20183;-78
2023/03/30 03:27:07;;;;;;;0.40;0.40;;;5.60;75.50;;;;;;4980784;28;20229;-78
2023/03/30 03:29:33;;;;;;;0.30;0.30;;;5.70;75.50;;;;;;4981097;28;20189;-78
2023/03/30 03:31:59;;;;;;;0.30;0.30;;;5.60;75.60;;;;;;4980559;28;20285;-78
2023/03/30 03:34:30;;;;;;;0.33;0.20;;;5.60;76.50;;;;;;4981087;28;20274;-78
2023/03/30 03:36:56;;;;;;;0.20;0.20;;;5.60;76.40;;;;;;4976713;28;20566;-77
2023/03/30 03:39:21;;;;;;;0.27;0.27;;;5.60;76.00;;;;;;4979310;28;20180;-77
2023/03/30 03:41:47;;;;;;;0.40;0.40;;;5.60;76.60;;;;;;4976883;28;20663;-78
2023/03/30 03:44:13;;;;;;;0.50;0.50;;;5.50;76.80;;;;;;4981941;28;20260;-80
2023/03/30 03:46:38;;;;;;;0.50;0.50;;;5.50;77.00;;;;;;4979675;28;20202;-79
2023/03/30 03:49:04;;;;;;;0.53;0.53;;;5.50;77.10;;;;;;4978664;28;20191;-79
2023/03/30 03:51:31;;;;;;;0.60;0.60;;;5.50;77.50;;;;;;4981396;28;20666;-79
2023/03/30 03:53:57;;;;;;;0.40;0.40;;;5.50;77.20;;;;;;4974973;28;20269;-78
2023/03/30 03:56:24;;;;;;;0.40;0.40;;;5.50;77.50;;;;;;4980735;28;20245;-79
2023/03/30 03:58:50;;;;;;;0.53;0.47;;;5.60;77.70;;;;;;4977846;28;20226;-79
2023/03/30 04:01:16;;;;;;;0.40;0.40;;;5.60;77.70;;;;;;4980580;28;20574;-79
2023/03/30 04:03:42;;;;;;;0.60;0.60;;;5.60;77.80;;;;;;4982283;28;20251;-79
2023/03/30 04:06:08;;;;;;;0.53;0.53;;;5.60;78.40;;;;;;4979444;28;20194;-79
2023/03/30 04:08:33;;;;;;;3.07;0.93;;;5.60;77.90;;;;;;4980469;28;20676;-76
2023/03/30 04:11:11;;;;;;;0.50;0.40;;;5.60;78.10;;;;;;4975995;28;20184;-73
2023/03/30 04:13:40;;;;;;;1.20;0.63;;;5.60;78.40;;;;;;4976599;28;20189;-72
2023/03/30 04:16:07;;;;;;;0.73;0.73;;;5.60;78.80;;;;;;4985245;28;20190;-73
2023/03/30 04:18:33;;;;;;;0.50;0.50;;;5.60;79.00;;;;;;4982708;28;20276;-73
2023/03/30 04:21:04;;;;;;;0.80;0.80;;;5.50;79.00;;;;;;4977848;28;20283;-73
2023/03/30 04:23:35;;;;;;;0.80;0.80;;;5.60;78.70;;;;;;4977821;28;20197;-73
2023/03/30 04:26:06;;;;;;;0.50;0.50;;;5.60;78.80;;;;;;4978950;28;20600;-73
2023/03/30 04:28:33;;;;;;;1.10;0.60;;;5.60;78.70;;;;;;4981002;28;20261;-79
2023/03/30 04:31:01;;;;;;;0.60;0.60;;;5.60;79.20;;;;;;4982061;28;20182;-74
2023/03/30 04:33:27;;;;;;;0.50;0.50;;;5.60;79.30;;;;;;4983912;28;20182;-72
2023/03/30 04:35:53;;;;;;;0.30;0.27;;;5.60;78.90;;;;;;4983035;28;20190;-72
2023/03/30 04:38:22;;;;;;;0.40;0.40;;;5.60;79.30;;;;;;4977884;28;20232;-73
2023/03/30 04:40:51;;;;;;;1.30;0.77;;;5.60;79.40;;;;;;4981617;28;20567;-72
2023/03/30 04:43:21;;;;;;;0.53;0.53;;;5.60;78.80;;;;;;4977225;28;20182;-73
2023/03/30 04:45:52;;;;;;;0.50;0.50;;;5.60;78.90;;;;;;4979101;28;20759;-74
2023/03/30 04:48:19;;;;;;;0.47;0.47;;;5.60;78.70;;;;;;4974810;28;20189;-75
2023/03/30 04:50:46;;;;;;;0.30;0.30;;;5.60;78.70;;;;;;4979659;28;20252;-75
2023/03/30 04:53:14;;;;;;;0.40;0.40;;;5.70;78.20;;;;;;4973068;28;20232;-75
2023/03/30 04:55:40;;;;;;;0.70;0.63;;;5.70;78.30;;;;;;4978474;28;20721;-75
2023/03/30 04:58:06;;;;;;;1.10;0.57;;;5.70;78.20;;;;;;4983749;28;20227;-77
2023/03/30 05:00:32;;;;;;;0.30;0.30;;;5.70;78.60;;;;;;4973766;28;20269;-76
2023/03/30 05:02:58;;;;;;;1.20;1.20;;;5.70;78.80;;;;;;4985866;28;20174;-77
2023/03/30 05:05:23;;;;;;;0.77;0.77;;;5.70;78.90;;;;;;4984815;28;20244;-76
2023/03/30 05:07:50;;;;;;;0.47;0.47;;;5.80;78.50;;;;;;4982064;28;20185;-78
2023/03/30 05:10:16;;;;;;;0.50;0.50;;;5.80;78.80;;;;;;4983287;28;20183;-78
2023/03/30 05:12:42;;;;;;;0.93;0.53;;;5.90;78.50;;;;;;4979174;28;20196;-78
2023/03/30 05:15:08;;;;;;;0.33;0.20;;;5.90;78.60;;;;;;4981894;28;20177;-78
2023/03/30 05:17:34;;;;;;;0.80;0.80;;;6.00;78.70;;;;;;4981339;28;20210;-78
2023/03/30 05:20:00;;;;;;;0.70;0.70;;;6.00;78.60;;;;;;4984292;28;20240;-78
2023/03/30 05:22:25;;;;;;;0.80;0.80;;;6.10;78.30;;;;;;4982992;28;20178;-77
2023/03/30 05:24:51;;;;;;;1.00;1.00;;;6.20;78.30;;;;;;4984934;28;20398;-79
2023/03/30 05:27:17;;;;;;;1.07;1.07;;;6.20;78.20;;;;;;4979780;28;20653;-78
2023/03/30 05:29:43;;;;;;;0.80;0.80;;;6.30;78.20;;;;;;4983388;28;20178;-78
2023/03/30 05:32:09;;;;;;;0.60;0.60;;;6.30;78.00;;;;;;4983951;28;21477;-78
2023/03/30 05:34:35;;;;;;;2.00;0.80;;;6.40;77.90;;;;;;4982071;28;20228;-78
2023/03/30 05:37:00;;;;;;;0.70;0.67;;;6.40;77.80;;;;;;4982031;28;20514;-78
2023/03/30 05:39:26;;;;;;;1.17;0.80;;;6.50;77.70;;;;;;4982250;28;20210;-77
2023/03/30 05:41:52;;;;;;;0.80;0.80;;;6.60;77.60;;;;;;4984449;28;20178;-77
2023/03/30 05:44:18;;;;;;;0.60;0.60;;;6.60;77.60;;;;;;4983640;28;20201;-77
2023/03/30 05:46:43;;;;;;;1.80;0.90;;;6.70;77.50;;;;;;4980654;28;20182;-79
2023/03/30 05:49:09;;;;;;;0.90;0.90;;;6.70;77.20;;;;;;4981438;28;20198;-78
2023/03/30 05:51:35;;;;;;;0.87;0.87;;;6.80;77.30;;;;;;4982840;28;20209;-78
2023/03/30 05:54:02;;;;;;;1.10;1.10;;;6.90;77.10;;;;;;4980452;28;20186;-78
2023/03/30 05:56:28;;;;;;;2.10;0.97;;;6.90;77.00;;;;;;4980912;28;20189;-78
2023/03/30 05:58:54;;;;;;;0.93;0.93;;;6.90;76.90;;;;;;4979250;28;20284;-78
2023/03/30 06:01:20;;;;;;;4.50;0.93;;;7.00;77.10;;;;;;4981608;28;20201;-78
2023/03/30 06:03:46;;;;;;;0.93;0.93;;;7.00;77.20;;;;;;4979510;28;20611;-79
2023/03/30 06:06:12;;;;;;;2.23;1.00;;;7.10;77.30;;;;;;4983811;28;20676;-78
2023/03/30 06:08:40;;;;;;;1.03;0.90;;;7.10;77.10;;;;;;4981192;28;20186;-78
2023/03/30 06:11:06;;;;;;;0.93;0.93;;;7.20;77.00;;;;;;4980211;28;20293;-77
2023/03/30 06:13:32;;;;;;;1.20;1.20;;;7.20;76.80;;;;;;4979588;28;20174;-77
2023/03/30 06:15:58;;;;;;;1.10;1.00;;;7.30;76.60;;;;;;4980700;28;20192;-76
2023/03/30 06:18:24;;;;;;;0.93;0.93;;;7.30;76.50;;;;;;4979879;28;20280;-78
2023/03/30 06:20:50;;;;;;;0.70;0.70;;;7.30;76.60;;;;;;4979093;28;20240;-78
2023/03/30 06:23:16;;;;;;;2.90;0.90;;;7.30;76.80;;;;;;4977011;28;20182;-79
2023/03/30 06:25:46;;;;;;;0.73;0.73;;;7.40;76.90;;;;;;4982354;28;20190;-78
2023/03/30 06:28:11;;;;;;;0.93;0.93;;;7.40;76.90;;;;;;4986206;28;20375;-79
2023/03/30 06:30:38;;;;;;;0.83;0.80;;;7.40;76.90;;;;;;4982437;28;20699;-78
2023/03/30 06:33:03;;;;;;;0.77;0.77;;;7.40;76.60;;;;;;4986764;28;20200;-79
2023/03/30 06:35:29;;;;;;;0.70;0.70;;;7.40;76.60;;;;;;4979191;28;20261;-78
2023/03/30 06:37:55;;;;;;;1.07;0.87;;;7.30;76.80;;;;;;4979194;28;20229;-77
2023/03/30 06:40:21;;;;;;;1.20;1.20;;;7.30;77.00;;;;;;4985932;28;20204;-77
2023/03/30 06:42:46;;;;;;;1.10;1.00;;;7.30;77.00;;;;;;4981088;28;20217;-77
2023/03/30 06:45:13;;;;;;;0.87;0.87;;;7.30;77.10;;;;;;4980425;28;20185;-77
2023/03/30 06:47:42;;;;;;;1.10;1.10;;;7.40;77.30;;;;;;4980378;28;20217;-77
2023/03/30 06:50:08;;;;;;;3.00;0.83;;;7.40;77.30;;;;;;4981229;28;20181;-77
2023/03/30 06:52:35;;;;;;;1.10;1.00;;;7.50;77.10;;;;;;4984179;28;20194;-77
2023/03/30 06:55:01;;;;;;;0.70;0.70;;;7.60;77.00;;;;;;4983867;28;20253;-77
2023/03/30 06:57:27;;;;;;;1.33;1.33;;;7.70;76.80;;;;;;4982994;28;20292;-77
2023/03/30 06:59:52;;;;;;;1.90;1.07;;;7.80;76.30;;;;;;4983547;28;20273;-78
2023/03/30 07:02:18;;;;;;;0.83;0.83;;;7.90;76.30;;;;;;4978513;28;20306;-78
2023/03/30 07:04:45;;;;;;;1.07;1.00;;;7.90;76.20;;;;;;4980055;28;20252;-78
2023/03/30 07:07:11;;;;;;;1.30;1.30;;;8.00;76.10;;;;;;4982573;28;20192;-78
2023/03/30 07:09:37;;;;;;;0.87;0.73;;;8.10;75.50;;;;;;4981141;28;20680;-78
2023/03/30 07:12:03;;;;;;;4.20;1.50;;;8.20;75.40;;;;;;4977350;28;20182;-78
2023/03/30 07:14:29;;;;;;;1.53;1.47;;;8.40;75.20;;;;;;4977753;28;20186;-78
2023/03/30 07:16:56;;;;;;;3.50;1.53;;;8.60;74.70;;;;;;4985381;28;20193;-77
2023/03/30 07:19:22;;;;;;;4.70;1.50;;;8.70;74.10;;;;;;4981406;28;20304;-78
2023/03/30 07:21:48;;;;;;;1.17;1.17;;;8.90;73.90;;;;;;4982470;28;20728;-77
2023/03/30 07:24:14;;;;;;;1.33;1.10;;;9.00;73.30;;;;;;4980574;28;20185;-78
2023/03/30 07:26:40;;;;;;;1.20;1.10;;;9.20;73.30;;;;;;4978561;28;20174;-78
2023/03/30 07:29:06;;;;;;;1.57;1.47;;;9.30;73.00;;;;;;4978479;28;20189;-77
2023/03/30 07:31:32;;;;;;;4.93;2.00;;;9.50;72.80;;;;;;4979464;28;20215;-77
2023/03/30 07:33:57;;;;;;;1.57;1.47;;;9.60;72.30;;;;;;4981593;28;20261;-78
2023/03/30 07:36:23;;;;;;;2.30;1.70;;;9.70;71.60;;;;;;4982791;28;20178;-77
2023/03/30 07:38:50;;;;;;;2.33;2.13;;;9.80;71.50;;;;;;4978498;28;20241;-77
2023/03/30 07:41:17;;;;;;;6.33;1.60;;;10.00;71.20;;;;;;4977373;28;20571;-77
2023/03/30 07:43:43;;;;;;;2.03;1.70;;;10.20;70.50;;;;;;4975349;28;20232;-77
2023/03/30 07:46:10;;;;;;;1.20;1.20;;;10.30;70.30;;;;;;4978069;28;20213;-80
2023/03/30 07:48:37;;;;;;;1.57;1.53;;;10.40;69.30;;;;;;4981321;28;20182;-80
2023/03/30 07:51:08;;;;;;;1.77;1.67;;;10.60;69.30;;;;;;4987531;28;20257;-80
2023/03/30 07:53:34;;;;;;;1.70;1.65;;;10.80;69.20;;;;;;4981562;28;20189;-79
2023/03/30 07:56:00;;;;;;;2.77;1.87;;;10.90;69.40;;;;;;4979829;28;20181;-77
2023/03/30 07:58:26;;;;;;;1.87;1.77;;;11.10;69.20;;;;;;4980946;28;20217;-74
2023/03/30 08:00:52;;;;;;;1.70;1.60;;;11.30;68.50;;;;;;4979744;28;20178;-76
2023/03/30 08:03:20;;;;;;;2.10;1.90;;;11.20;68.00;;;;;;4978059;28;20240;-76
2023/03/30 08:05:59;;;;;;;1.52;1.42;;;11.30;68.20;;;;;;4979464;28;20206;-75
2023/03/30 08:08:26;;;;;;;2.97;2.67;;;11.40;67.90;;;;;;4976921;28;20534;-77
2023/03/30 08:10:52;;;;;;;2.10;1.83;;;11.60;67.40;;;;;;4981668;28;20455;-77
2023/03/30 08:13:18;;;;;;;3.35;1.95;;;11.70;67.50;;;;;;4980695;28;20269;-77
2023/03/30 08:15:45;;;;;;;2.00;1.65;;;11.80;66.90;;;;;;4974831;28;20270;-76
2023/03/30 08:18:12;;;;;;;2.25;2.05;;;11.90;67.20;;;;;;4978488;28;20268;-76
2023/03/30 08:20:40;;;;;;;2.08;1.92;;;11.90;66.80;;;;;;4979813;28;20181;-76
2023/03/30 08:23:06;;;;;;;5.25;2.28;;;11.90;66.50;;;;;;4977648;28;20569;-75
2023/03/30 08:25:33;;;;;;;1.70;1.55;;;11.90;66.50;;;;;;4980377;28;20252;-76
2023/03/30 08:27:59;;;;;;;3.25;2.00;;;12.00;66.60;;;;;;4979864;28;20260;-75
2023/03/30 08:30:26;;;;;;;4.95;2.00;;;12.10;66.30;;;;;;4974890;28;20190;-75
2023/03/30 08:32:52;;;;;;;1.95;1.85;;;12.10;66.10;;;;;;4980523;28;20202;-76
2023/03/30 08:35:19;;;;;;;1.77;1.67;;;12.30;66.00;;;;;;4977298;28;20192;-75
2023/03/30 08:37:45;;;;;;;3.17;1.67;;;12.40;65.40;;;;;;4983328;28;20289;-76
2023/03/30 08:40:12;;;;;;;1.80;1.40;;;12.50;65.30;;;;;;4984296;28;20616;-75
2023/03/30 08:42:58;;;;;;;1.55;1.45;;;12.70;64.90;;;;;;4984036;28;20194;-76
2023/03/30 08:45:26;;;;;;;2.92;1.80;;;13.00;64.20;;;;;;4979776;28;20226;-76
2023/03/30 08:47:53;;;;;;;1.30;1.30;;;13.20;63.50;;;;;;4983777;28;20181;-76
2023/03/30 08:50:32;;;;;;;3.83;1.70;;;13.50;63.50;;;;;;4984257;28;20305;-76
2023/03/30 08:52:58;;;;;;;1.73;1.73;;;13.70;63.10;;;;;;4981493;28;20285;-76
2023/03/30 08:55:29;;;;;;;3.10;2.20;;;13.90;62.50;;;;;;4983104;28;20615;-76
2023/03/30 08:58:11;;;;;;;2.28;2.05;;;14.00;62.10;;;;;;4984192;28;20240;-78
2023/03/30 09:00:53;;;;;;;4.30;2.30;;;14.20;61.70;;;;;;4981009;28;20244;-76
2023/03/30 09:03:38;;;;;;;3.22;2.30;;;14.20;61.50;;;;;;4979578;28;20272;-77
2023/03/30 09:06:12;;;;;;;4.38;1.88;;;14.30;61.60;;;;;;4980343;28;20201;-77
2023/03/30 09:08:39;;;;;;;1.60;1.48;;;14.50;61.10;;;;;;4980780;28;20188;-77
2023/03/30 09:11:12;;;;;;;1.52;1.42;;;14.60;60.90;;;;;;4980704;28;20244;-77
2023/03/30 09:13:40;;;;;;;1.85;1.42;;;14.90;60.20;;;;;;4981587;28;20174;-75
2023/03/30 09:16:21;;;;;;;1.38;1.27;;;15.20;59.70;;;;;;4982378;28;20252;-76
2023/03/30 09:18:54;;;;;;;1.17;1.17;;;15.60;58.80;;;;;;4982729;28;20218;-77
2023/03/30 09:21:22;;;;;;;1.30;1.30;;;15.90;57.90;;;;;;4981687;28;20183;-79
2023/03/30 09:23:49;;;;;;;1.48;1.38;;;16.20;58.60;;;;;;4981464;28;20194;-78
2023/03/30 09:26:15;;;;;;;2.45;1.30;;;16.50;57.40;;;;;;4981399;28;20178;-76
2023/03/30 09:29:05;;;;;;;1.38;1.33;;;17.20;57.60;;;;;;4979641;28;20240;-77
2023/03/30 09:31:39;;;;;;;1.85;0.60;;;18.20;55.20;;;;;;4980209;28;20184;-76
2023/03/30 09:34:25;;;;;;;0.65;0.65;;;19.10;51.50;;;;;;4982192;28;20221;-76
2023/03/30 09:36:56;;;;;;;0.63;0.63;;;19.40;51.40;;;;;;4979045;28;20556;-77
2023/03/30 09:39:28;;;;;;;0.60;0.60;;;19.90;50.50;;;;;;4977935;28;20214;-76
2023/03/30 09:42:07;;;;;;;2.28;0.55;;;19.90;49.60;;;;;;4982574;28;20177;-77
2023/03/30 09:44:36;;;;;;;1.25;0.60;;;19.50;49.00;;;;;;4979322;28;20591;-75
2023/03/30 09:47:26;;;;;;;0.40;0.40;;;19.20;50.40;;;;;;4976752;28;20223;-76
2023/03/30 09:50:03;;;;;;;0.60;0.47;;;19.00;50.10;;;;;;4983448;28;20217;-76
2023/03/30 09:52:35;;;;;;;0.40;0.40;;;19.20;50.90;;;;;;4974643;28;20602;-76
2023/03/30 09:55:21;;;;;;;0.75;0.75;;;19.40;50.50;;;;;;4980457;28;20241;-75
2023/03/30 09:57:48;;;;;;;0.65;0.65;;;19.20;49.70;;;;;;4926546;29;20729;-75
2023/03/30 10:00:22;;;;;;;0.57;0.57;;;19.10;50.30;;;;;;4930061;29;20283;-79
2023/03/30 10:03:04;;;;;;;0.40;0.40;;;19.10;50.50;;;;;;4930438;29;20198;-77
2023/03/30 10:05:32;;;;;;;0.70;0.70;;;19.10;49.80;;;;;;4922816;29;20680;-77
2023/03/30 10:08:03;;;;;;;0.90;0.73;;;19.20;50.10;;;;;;4927362;29;20196;-77
2023/03/30 10:10:35;;;;;;;0.60;0.60;;;19.50;50.60;;;;;;4928843;29;20585;-78
2023/03/30 10:13:15;;;;;;;0.35;0.35;;;20.00;49.30;;;;;;4928782;29;20184;-79
2023/03/30 10:15:44;;;;;;;0.47;0.47;;;20.30;48.40;;;;;;4927424;29;20558;-78
2023/03/30 10:18:23;;;;;;;0.57;0.57;;;20.10;48.50;;;;;;4926336;29;20612;-79
2023/03/30 10:21:03;;;;;;;0.30;0.30;;;19.90;48.40;;;;;;4928333;29;20183;-77
2023/03/30 10:23:33;;;;;;;0.40;0.40;;;19.40;48.90;;;;;;4910803;29;20278;-78
2023/03/30 10:26:02;;;;;;;0.40;0.40;;;19.40;49.60;;;;;;4924282;29;20195;-79
2023/03/30 10:28:32;;;;;;;1.38;0.55;;;19.50;49.20;;;;;;4923691;29;20207;-79
2023/03/30 10:31:01;;;;;;;0.75;0.47;;;19.40;49.10;;;;;;4926879;29;20233;-78
2023/03/30 10:33:29;;;;;;;0.60;0.60;;;19.20;49.00;;;;;;4928278;29;20199;-78
2023/03/30 10:35:59;;;;;;;0.57;0.57;;;18.90;50.20;;;;;;4979597;28;20581;-79
2023/03/30 10:38:31;;;;;;;0.38;0.38;;;18.80;50.50;;;;;;4986448;28;20217;-80
2023/03/30 10:41:16;;;;;;;0.47;0.47;;;18.50;50.30;;;;;;4981415;28;20236;-79
2023/03/30 10:43:42;;;;;;;0.50;0.50;;;18.30;50.60;;;;;;4995417;28;20221;-78
2023/03/30 10:46:12;;;;;;;0.60;0.60;;;17.90;51.10;;;;;;4976166;28;20202;-78
2023/03/30 10:49:02;;;;;;;0.60;0.60;;;17.50;51.20;;;;;;4981496;28;20186;-75
2023/03/30 10:51:40;;;;;;;0.57;0.57;;;17.10;51.70;;;;;;4982163;28;20182;-75
2023/03/30 10:54:18;;;;;;;0.55;0.55;;;17.00;52.40;;;;;;4977567;28;20687;-75
2023/03/30 10:56:53;;;;;;;0.57;0.57;;;17.10;52.20;;;;;;4978337;28;20306;-75
2023/03/30 10:59:47;;;;;;;0.40;0.40;;;17.00;51.90;;;;;;4980916;28;20209;-75
2023/03/30 11:02:18;;;;;;;0.70;0.60;;;16.50;52.60;;;;;;4978845;28;20190;-77
2023/03/30 11:04:49;;;;;;;1.15;0.63;;;16.30;53.30;;;;;;4982630;28;20182;-76
2023/03/30 11:07:44;;;;;;;0.68;0.60;;;16.30;53.60;;;;;;4976003;28;20193;-75
2023/03/30 11:10:20;;;;;;;0.40;0.40;;;16.80;52.90;;;;;;4924822;29;20687;-74
2023/03/30 11:12:54;;;;;;;0.70;0.70;;;17.40;52.10;;;;;;4923180;29;20306;-76
2023/03/30 11:16:11;;;;;;;0.45;0.45;;;18.00;51.50;;;;;;4925900;29;20200;-77
2023/03/30 11:18:55;;;;;;;0.75;0.47;;;18.80;50.20;;;;;;4922877;29;20223;-76
2023/03/30 11:21:44;;;;;;;0.90;0.50;;;19.50;49.40;;;;;;4911068;29;20203;-75
2023/03/30 11:24:17;;;;;;;0.50;0.50;;;19.80;49.00;;;;;;4927909;29;20235;-77
2023/03/30 11:26:46;;;;;;;0.40;0.40;;;20.00;48.50;;;;;;4926091;29;20254;-76
2023/03/30 11:29:50;;;;;;;0.63;0.63;;;20.00;48.10;;;;;;4925850;29;20199;-75
2023/03/30 11:32:55;;;;;;;0.50;0.50;;;20.10;48.50;;;;;;4909643;29;20678;-78
2023/03/30 11:35:47;;;;;;;0.45;0.45;;;20.50;48.30;;;;;;4926236;29;20191;-78
2023/03/30 11:38:28;;;;;;;0.50;0.50;;;21.00;47.70;;;;;;4928507;29;20207;-78
2023/03/30 11:41:03;;;;;;;1.95;0.60;;;21.30;47.30;;;;;;4926094;29;20237;-77
2023/03/30 11:43:30;;;;;;;2.63;0.73;;;21.90;46.90;;;;;;4924899;29;20221;-77
2023/03/30 11:46:14;;;;;;;0.60;0.60;;;22.80;46.00;;;;;;4929518;28;20199;-79
2023/03/30 11:48:57;;;;;;;0.80;0.80;;;23.40;45.80;;;;;;4983646;28;20181;-77
2023/03/30 11:51:36;;;;;;;0.43;0.43;;;24.30;45.10;;;;;;4982493;28;20377;-80
2023/03/30 11:54:20;;;;;;;0.65;0.65;;;25.10;44.00;;;;;;4987291;28;20659;-81
2023/03/30 11:56:52;;;;;;;0.50;0.50;;;25.60;44.10;;;;;;4981727;28;20189;-80
2023/03/30 11:59:20;;;;;;;0.80;0.80;;;26.40;43.70;;;;;;4984779;28;20237;-81
2023/03/30 12:02:25;;;;;;;0.70;0.70;;;26.80;41.90;;;;;;4983139;28;20186;-80
2023/03/30 12:05:10;;;;;;;0.82;0.70;;;26.70;41.60;;;;;;4987627;28;20196;-81
2023/03/30 12:08:18;;;;;;;1.35;0.70;;;26.90;42.50;;;;;;4976690;28;20216;-81
2023/03/30 12:10:50;;;;;;;0.93;0.55;;;27.30;41.00;;;;;;4983029;28;20584;-78
2023/03/30 12:13:18;;;;;;;0.40;0.40;;;27.40;42.20;;;;;;4982786;28;20197;-78
2023/03/30 12:16:18;;;;;;;0.68;0.60;;;27.70;41.40;;;;;;4981316;28;20189;-76
2023/03/30 12:19:13;;;;;;;0.60;0.60;;;27.80;41.50;;;;;;4979278;28;20224;-76
2023/03/30 12:21:56;;;;;;;0.80;0.80;;;27.60;41.50;;;;;;4979079;28;20185;-77
2023/03/30 12:24:33;;;;;;;0.40;0.40;;;27.90;42.80;;;;;;4981718;28;20289;-78
2023/03/30 12:26:59;;;;;;;0.40;0.40;;;28.40;39.70;;;;;;4977559;28;20177;-78
2023/03/30 12:29:43;;;;;;;0.63;0.63;;;28.40;39.80;;;;;;4979539;28;20209;-77
2023/03/30 12:32:18;;;;;;;0.38;0.38;;;28.00;40.00;;;;;;4977252;28;20584;-77
2023/03/30 12:34:44;;;;;;;0.60;0.50;;;28.10;40.80;;;;;;4982724;28;20184;-78
2023/03/30 12:37:33;;;;;;;0.60;0.60;;;28.30;41.40;;;;;;4981359;28;20189;-78
2023/03/30 12:40:05;;;;;;;2.33;0.65;;;28.70;39.40;;;;;;4980728;28;20228;-79
2023/03/30 12:42:38;;;;;;;0.40;0.40;;;28.60;39.60;;;;;;4978185;28;20173;-79
2023/03/30 12:45:12;;;;;;;0.50;0.50;;;28.30;41.60;;;;;;4980396;28;20328;-78
2023/03/30 12:48:13;;;;;;;3.22;0.57;;;28.40;40.60;;;;;;4976943;28;20205;-79
2023/03/30 12:51:05;;;;;;;0.50;0.50;;;28.70;40.50;;;;;;4975676;28;20183;-79
2023/03/30 12:54:02;;;;;;;0.65;0.40;;;28.80;39.30;;;;;;4977779;28;20240;-79
2023/03/30 12:56:42;;;;;;;0.63;0.45;;;28.10;39.00;;;;;;4979460;28;20206;-78
2023/03/30 12:59:08;;;;;;;0.40;0.40;;;27.20;40.70;;;;;;4978878;28;20919;-78
2023/03/30 13:01:52;;;;;;;1.48;0.50;;;26.20;41.00;;;;;;4983658;28;20220;-78
2023/03/30 13:04:24;;;;;;;0.35;0.35;;;25.40;42.00;;;;;;4982687;28;20265;-78
2023/03/30 13:06:56;;;;;;;0.60;0.60;;;25.10;42.60;;;;;;4977751;28;20181;-77
2023/03/30 13:09:25;;;;;;;0.95;0.68;;;24.70;42.60;;;;;;4975997;28;20236;-77
2023/03/30 13:11:53;;;;;;;0.50;0.50;;;24.40;43.30;;;;;;4979808;28;20190;-76
2023/03/30 13:14:25;;;;;;;2.20;0.47;;;24.40;43.60;;;;;;4977474;28;20186;-78
2023/03/30 13:16:51;;;;;;;0.40;0.40;;;24.30;44.20;;;;;;4979639;28;20196;-78
2023/03/30 13:19:39;;;;;;;0.50;0.50;;;24.70;44.20;;;;;;4975725;28;20210;-78